createdAt,value
2023-04-04T00:00:55.763Z,3.70
2023-04-04T00:03:17.323Z,4.27
2023-04-04T00:05:39.840Z,3.90
2023-04-04T00:08:01.220Z,4.20
2023-04-04T00:10:22.497Z,3.87
2023-04-04T00:12:43.992Z,4.00
2023-04-04T00:15:05.662Z,4.10
2023-04-04T00:17:27.013Z,4.33
2023-04-04T00:19:47.950Z,3.80
2023-04-04T00:22:10.564Z,3.90
2023-04-04T00:24:31.785Z,4.13
2023-04-04T00:26:53.150Z,3.90
2023-04-04T00:29:14.435Z,4.13
2023-04-04T00:31:35.763Z,4.10
2023-04-04T00:33:56.842Z,4.67
2023-04-04T00:36:18.537Z,4.50
2023-04-04T00:38:41.300Z,4.20
2023-04-04T00:41:02.641Z,4.63
2023-04-04T00:43:24.100Z,4.53
2023-04-04T00:45:45.346Z,4.23
2023-04-04T00:48:07.703Z,4.23
2023-04-04T00:50:28.674Z,4.10
2023-04-04T00:52:50.133Z,4.40
2023-04-04T00:55:12.674Z,4.23
2023-04-04T00:57:34.442Z,4.50
2023-04-04T00:59:56.101Z,4.63
2023-04-04T01:02:17.398Z,4.20
2023-04-04T01:04:38.535Z,4.10
2023-04-04T01:07:00.502Z,3.80
2023-04-04T01:09:22.323Z,4.33
2023-04-04T01:11:45.149Z,3.87
2023-04-04T01:14:06.351Z,3.77
2023-04-04T01:16:27.737Z,4.03
2023-04-04T01:18:49.590Z,4.17
2023-04-04T01:21:11.796Z,4.17
2023-04-04T01:23:36.072Z,4.23
2023-04-04T01:26:03.986Z,4.60
2023-04-04T01:28:25.078Z,4.10
2023-04-04T01:30:46.883Z,4.50
2023-04-04T01:33:10.740Z,3.90
2023-04-04T01:35:35.238Z,4.30
2023-04-04T01:38:03.852Z,4.80
2023-04-04T01:40:27.040Z,4.30
2023-04-04T01:42:49.646Z,4.60
2023-04-04T01:45:12.494Z,4.50
2023-04-04T01:47:38.848Z,4.07
2023-04-04T01:50:00.762Z,4.33
2023-04-04T01:52:22.138Z,4.60
2023-04-04T01:54:43.479Z,4.50
2023-04-04T01:57:05.015Z,4.23
2023-04-04T01:59:27.716Z,4.50
2023-04-04T02:01:49.071Z,4.77
2023-04-04T02:04:12.365Z,4.73
2023-04-04T02:06:33.885Z,4.80
2023-04-04T02:08:54.885Z,4.37
2023-04-04T02:11:16.136Z,4.63
2023-04-04T02:13:41.333Z,4.57
2023-04-04T02:16:04.073Z,4.47
2023-04-04T02:18:26.003Z,4.80
2023-04-04T02:20:47.458Z,4.70
2023-04-04T02:23:08.704Z,5.17
2023-04-04T02:25:30.068Z,4.80
2023-04-04T02:27:51.514Z,5.20
2023-04-04T02:30:13.305Z,5.07
2023-04-04T02:32:36.240Z,4.63
2023-04-04T02:34:57.629Z,4.60
2023-04-04T02:37:18.891Z,4.73
2023-04-04T02:39:40.378Z,4.13
2023-04-04T02:42:01.480Z,5.03
2023-04-04T02:44:23.242Z,4.50
2023-04-04T02:46:44.598Z,4.60
2023-04-04T02:49:07.211Z,4.60
2023-04-04T02:51:28.500Z,4.43
2023-04-04T02:53:49.841Z,4.47
2023-04-04T02:56:11.204Z,4.40
2023-04-04T02:58:32.776Z,4.60
2023-04-04T03:00:57.473Z,4.03
2023-04-04T03:03:18.562Z,4.50
2023-04-04T03:05:41.058Z,4.27
2023-04-04T03:08:02.978Z,4.33
2023-04-04T03:10:24.342Z,4.17
2023-04-04T03:12:46.598Z,4.57
2023-04-04T03:15:08.254Z,4.30
2023-04-04T03:17:29.569Z,4.20
2023-04-04T03:19:50.974Z,4.50
2023-04-04T03:22:13.453Z,4.47
2023-04-04T03:24:34.872Z,4.17
2023-04-04T03:26:56.182Z,5.20
2023-04-04T03:29:17.625Z,4.70
2023-04-04T03:31:38.876Z,4.67
2023-04-04T03:34:00.951Z,4.67
2023-04-04T03:36:22.783Z,4.70
2023-04-04T03:38:45.416Z,4.60
2023-04-04T03:41:07.400Z,4.47
2023-04-04T03:43:29.465Z,4.63
2023-04-04T03:45:50.431Z,5.50
2023-04-04T03:48:11.763Z,4.50
2023-04-04T03:50:32.991Z,4.40
2023-04-04T03:52:54.249Z,5.00
2023-04-04T03:55:17.040Z,4.47
2023-04-04T03:57:38.412Z,4.93
2023-04-04T03:59:59.749Z,5.00
2023-04-04T04:02:21.255Z,4.43
2023-04-04T04:04:42.589Z,4.80
2023-04-04T04:07:03.865Z,4.50
2023-04-04T04:09:25.291Z,4.80
2023-04-04T04:11:48.156Z,4.90
2023-04-04T04:14:09.345Z,5.17
2023-04-04T04:16:30.970Z,4.93
2023-04-04T04:18:52.497Z,5.10
2023-04-04T04:21:13.510Z,4.93
2023-04-04T04:23:35.015Z,5.30
2023-04-04T04:25:56.398Z,4.40
2023-04-04T04:28:19.492Z,4.57
2023-04-04T04:30:40.936Z,4.83
2023-04-04T04:33:03.690Z,5.60
2023-04-04T04:35:25.174Z,5.13
2023-04-04T04:37:46.719Z,4.83
2023-04-04T04:40:08.749Z,5.20
2023-04-04T04:42:30.514Z,5.13
2023-04-04T04:44:52.923Z,4.97
2023-04-04T04:47:14.028Z,5.30
2023-04-04T04:49:35.417Z,5.37
2023-04-04T04:51:56.662Z,5.17
2023-04-04T04:54:17.875Z,5.50
2023-04-04T04:56:39.109Z,4.63
2023-04-04T04:59:00.459Z,4.97
2023-04-04T05:01:23.292Z,5.10
2023-04-04T05:03:44.502Z,5.23
2023-04-04T05:06:06.524Z,4.80
2023-04-04T05:08:28.099Z,5.03
2023-04-04T05:10:49.265Z,4.97
2023-04-04T05:13:10.666Z,4.60
2023-04-04T05:15:32.344Z,4.73
2023-04-04T05:17:54.861Z,5.03
2023-04-04T05:20:16.472Z,5.40
2023-04-04T05:22:37.648Z,5.03
2023-04-04T05:24:58.696Z,5.67
2023-04-04T05:27:19.898Z,4.90
2023-04-04T05:29:41.441Z,4.90
2023-04-04T05:32:02.303Z,5.20
2023-04-04T05:34:24.967Z,5.30
2023-04-04T05:36:46.584Z,5.20
2023-04-04T05:39:07.788Z,5.20
2023-04-04T05:41:29.120Z,5.33
2023-04-04T05:43:50.448Z,5.07
2023-04-04T05:46:11.770Z,5.27
2023-04-04T05:48:33.070Z,5.33
2023-04-04T05:50:55.998Z,5.20
2023-04-04T05:53:17.090Z,4.87
2023-04-04T05:55:38.734Z,5.50
2023-04-04T05:58:00.047Z,5.30
2023-04-04T06:00:21.582Z,5.77
2023-04-04T06:02:43.103Z,5.37
2023-04-04T06:05:04.655Z,5.00
2023-04-04T06:07:27.276Z,5.63
2023-04-04T06:09:48.475Z,5.10
2023-04-04T06:12:10.105Z,4.90
2023-04-04T06:14:31.196Z,5.33
2023-04-04T06:16:52.198Z,5.10
2023-04-04T06:19:13.939Z,5.30
2023-04-04T06:21:35.385Z,4.97
2023-04-04T06:23:57.909Z,4.80
2023-04-04T06:26:19.364Z,4.70
2023-04-04T06:28:48.143Z,5.13
2023-04-04T06:31:09.929Z,4.97
2023-04-04T06:33:30.774Z,4.90
2023-04-04T06:35:52.081Z,5.10
2023-04-04T06:38:13.749Z,5.10
2023-04-04T06:40:36.506Z,5.10
2023-04-04T06:42:58.334Z,4.90
2023-04-04T06:45:19.482Z,4.60
2023-04-04T06:47:40.691Z,4.97
2023-04-04T06:50:02.334Z,4.50
2023-04-04T06:52:23.597Z,4.50
2023-04-04T06:54:45.801Z,4.53
2023-04-04T06:57:08.466Z,4.70
2023-04-04T06:59:29.907Z,4.70
2023-04-04T07:01:51.175Z,4.30
2023-04-04T07:04:12.311Z,4.60
2023-04-04T07:06:33.517Z,4.33
2023-04-04T07:08:54.803Z,4.17
2023-04-04T07:11:16.375Z,4.20
2023-04-04T07:13:38.742Z,4.50
2023-04-04T07:15:59.850Z,4.43
2023-04-04T07:18:21.209Z,4.20
2023-04-04T07:20:43.677Z,4.00
2023-04-04T07:23:04.606Z,4.30
2023-04-04T07:25:25.992Z,4.23
2023-04-04T07:27:47.580Z,4.23
2023-04-04T07:30:11.753Z,4.23
2023-04-04T07:32:32.851Z,4.13
2023-04-04T07:34:54.671Z,4.20
2023-04-04T07:37:15.931Z,4.37
2023-04-04T07:39:37.634Z,4.20
2023-04-04T07:41:58.765Z,4.07
2023-04-04T07:44:20.150Z,4.23
2023-04-04T07:46:42.827Z,4.03
2023-04-04T07:49:03.680Z,4.50
2023-04-04T07:51:29.539Z,3.80
2023-04-04T07:53:50.754Z,3.90
2023-04-04T07:56:12.039Z,4.13
2023-04-04T07:58:33.957Z,3.70
2023-04-04T08:00:55.373Z,4.33
2023-04-04T08:03:19.966Z,3.80
2023-04-04T08:05:42.798Z,3.80
2023-04-04T08:08:04.017Z,3.60
2023-04-04T08:10:25.564Z,3.67
2023-04-04T08:12:46.754Z,3.60
2023-04-04T08:15:08.524Z,3.60
2023-04-04T08:17:29.610Z,3.97
2023-04-04T08:19:52.321Z,3.67
2023-04-04T08:22:13.745Z,3.63
2023-04-04T08:24:36.665Z,3.90
2023-04-04T08:27:05.390Z,3.60
2023-04-04T08:29:28.985Z,3.60
2023-04-04T08:31:50.317Z,3.80
2023-04-04T08:34:11.957Z,3.60
2023-04-04T08:36:34.533Z,4.23
2023-04-04T08:38:55.843Z,4.13
2023-04-04T08:41:17.671Z,3.80
2023-04-04T08:43:41.298Z,3.80
2023-04-04T08:46:05.182Z,3.40
2023-04-04T08:48:27.756Z,3.70
2023-04-04T08:50:49.508Z,3.60
2023-04-04T08:53:12.832Z,3.90
2023-04-04T08:55:34.399Z,3.90
2023-04-04T08:57:55.895Z,3.43
2023-04-04T09:00:18.038Z,3.30
2023-04-04T09:02:44.493Z,3.33
2023-04-04T09:05:07.353Z,3.60
2023-04-04T09:07:29.134Z,3.63
2023-04-04T09:09:52.098Z,3.80
2023-04-04T09:12:14.571Z,3.73
2023-04-04T09:14:38.797Z,3.40
2023-04-04T09:17:00.252Z,3.27
2023-04-04T09:19:21.483Z,3.20
2023-04-04T09:21:47.051Z,3.47
2023-04-04T09:24:08.736Z,3.30
2023-04-04T09:26:31.468Z,3.63
2023-04-04T09:28:53.763Z,3.50
2023-04-04T09:31:15.401Z,2.90
2023-04-04T09:33:36.911Z,3.30
2023-04-04T09:35:59.253Z,3.30
2023-04-04T09:38:22.309Z,3.00
2023-04-04T09:40:43.597Z,3.80
2023-04-04T09:43:08.367Z,3.37
2023-04-04T09:45:32.401Z,2.93
2023-04-04T09:47:53.951Z,3.07
2023-04-04T09:50:21.973Z,3.30
2023-04-04T09:52:44.385Z,3.10
2023-04-04T09:55:06.533Z,3.43
2023-04-04T09:57:27.838Z,3.90
2023-04-04T09:59:50.318Z,3.67
2023-04-04T10:02:11.530Z,3.40
2023-04-04T10:04:32.882Z,3.30
2023-04-04T10:06:54.772Z,3.43
2023-04-04T10:09:16.519Z,3.37
2023-04-04T10:11:38.912Z,3.40
2023-04-04T10:14:00.680Z,3.80
2023-04-04T10:16:25.324Z,3.30
2023-04-04T10:18:46.944Z,3.90
2023-04-04T10:23:34.762Z,3.30
2023-04-04T10:25:56.839Z,3.27
2023-04-04T10:28:19.209Z,3.43
2023-04-04T10:30:52.881Z,3.40
2023-04-04T10:33:24.620Z,3.47
2023-04-04T10:35:48.947Z,3.70
2023-04-04T10:38:10.909Z,3.40
2023-04-04T10:40:34.664Z,3.77
2023-04-04T10:42:56.911Z,3.80
2023-04-04T10:45:21.635Z,3.77
2023-04-04T10:47:43.562Z,3.33
2023-04-04T10:50:09.101Z,3.30
2023-04-04T10:52:32.087Z,3.47
2023-04-04T10:54:56.134Z,3.57
2023-04-04T10:57:17.553Z,3.50
2023-04-04T10:59:53.795Z,3.40
2023-04-04T11:02:15.497Z,3.20
2023-04-04T11:04:41.963Z,3.10
2023-04-04T11:07:15.024Z,3.13
2023-04-04T11:09:52.784Z,3.23
2023-04-04T11:12:20.001Z,3.20
2023-04-04T11:14:55.169Z,3.23
2023-04-04T11:17:16.750Z,3.10
2023-04-04T11:19:41.017Z,3.50
2023-04-04T11:22:01.951Z,3.30
2023-04-04T11:24:24.701Z,3.50
2023-04-04T11:26:47.210Z,3.43
2023-04-04T11:29:08.747Z,3.60
2023-04-04T11:31:32.519Z,3.70
2023-04-04T11:33:55.276Z,3.30
2023-04-04T11:36:24.868Z,3.60
2023-04-04T11:38:50.298Z,3.10
2023-04-04T11:41:14.866Z,3.50
2023-04-04T11:43:45.532Z,3.60
2023-04-04T11:46:10.757Z,3.50
2023-04-04T11:48:33.673Z,3.47
2023-04-04T11:50:55.239Z,3.60
2023-04-04T11:53:17.476Z,3.23
2023-04-04T11:55:43.115Z,3.30
2023-04-04T11:58:12.737Z,3.67
2023-04-04T12:00:37.049Z,3.10
2023-04-04T12:02:58.467Z,3.27
2023-04-04T12:05:21.017Z,3.50
2023-04-04T12:07:42.917Z,3.60
2023-04-04T12:10:04.445Z,3.40
2023-04-04T12:12:27.614Z,3.40
2023-04-04T12:14:50.199Z,3.40
2023-04-04T12:17:11.633Z,3.10
2023-04-04T12:19:37.477Z,3.50
2023-04-04T12:21:58.811Z,3.70
2023-04-04T12:24:19.935Z,3.47
2023-04-04T12:26:42.611Z,3.33
2023-04-04T12:29:03.978Z,3.57
2023-04-04T12:31:27.490Z,3.40
2023-04-04T12:33:48.502Z,3.37
2023-04-04T12:36:10.226Z,3.37
2023-04-04T12:38:32.106Z,3.20
2023-04-04T12:40:53.443Z,3.10
2023-04-04T12:43:17.742Z,3.33
2023-04-04T12:45:40.219Z,3.30
2023-04-04T12:48:10.134Z,3.30
2023-04-04T12:50:31.464Z,3.40
2023-04-04T12:52:55.489Z,3.30
2023-04-04T12:55:22.816Z,3.30
2023-04-04T12:57:45.880Z,3.23
2023-04-04T13:00:09.096Z,3.17
2023-04-04T13:02:30.876Z,3.27
2023-04-04T13:04:56.025Z,3.20
2023-04-04T13:07:24.173Z,3.43
2023-04-04T13:09:53.361Z,3.27
2023-04-04T13:12:14.365Z,3.43
2023-04-04T13:14:50.402Z,3.03
2023-04-04T13:17:11.719Z,3.07
2023-04-04T13:19:33.025Z,3.73
2023-04-04T13:21:55.508Z,3.40
2023-04-04T13:24:16.622Z,3.13
2023-04-04T13:26:37.822Z,3.17
2023-04-04T13:28:59.090Z,3.20
2023-04-04T13:31:21.058Z,3.50
2023-04-04T13:33:42.316Z,3.40
2023-04-04T13:36:03.570Z,3.63
2023-04-04T13:38:27.266Z,3.50
2023-04-04T13:40:48.482Z,3.20
2023-04-04T13:43:11.336Z,3.27
2023-04-04T13:45:33.480Z,3.40
2023-04-04T13:47:54.808Z,3.43
2023-04-04T13:50:16.502Z,3.73
2023-04-04T13:52:37.926Z,3.47
2023-04-04T13:55:02.300Z,3.37
2023-04-04T13:57:23.681Z,3.27
2023-04-04T13:59:45.048Z,3.23
2023-04-04T14:02:06.372Z,3.30
2023-04-04T14:04:27.618Z,3.77
2023-04-04T14:06:49.404Z,3.20
2023-04-04T14:09:10.886Z,3.40
2023-04-04T14:11:34.975Z,3.33
2023-04-04T14:13:56.083Z,3.43
2023-04-04T14:16:17.438Z,3.70
2023-04-04T14:18:38.640Z,3.67
2023-04-04T14:20:59.880Z,3.53
2023-04-04T14:23:21.544Z,3.07
2023-04-04T14:25:42.956Z,3.10
2023-04-04T14:28:06.081Z,3.10
2023-04-04T14:30:27.295Z,3.50
2023-04-04T14:32:51.107Z,3.60
2023-04-04T14:35:12.702Z,3.37
2023-04-04T14:37:33.785Z,3.43
2023-04-04T14:39:55.018Z,3.30
2023-04-04T14:42:16.360Z,3.53
2023-04-04T14:44:38.907Z,3.23
2023-04-04T14:47:00.311Z,3.20
2023-04-04T14:49:21.406Z,3.17
2023-04-04T14:51:42.269Z,3.30
2023-04-04T14:54:03.562Z,3.40
2023-04-04T14:56:24.947Z,2.87
2023-04-04T14:58:46.382Z,3.30
2023-04-04T15:01:09.114Z,3.17
2023-04-04T15:03:30.273Z,2.93
2023-04-04T15:05:51.686Z,3.60
2023-04-04T15:08:12.832Z,3.47
2023-04-04T15:10:34.469Z,3.13
2023-04-04T15:12:55.453Z,3.27
2023-04-04T15:15:16.948Z,3.10
2023-04-04T15:17:39.312Z,3.27
2023-04-04T15:20:00.801Z,3.03
2023-04-04T15:22:21.870Z,2.80
2023-04-04T15:24:43.076Z,2.90
2023-04-04T15:27:04.404Z,3.23
2023-04-04T15:29:25.630Z,2.70
2023-04-04T15:31:47.677Z,2.80
2023-04-04T15:34:10.331Z,3.00
2023-04-04T15:36:33.486Z,3.00
2023-04-04T15:38:55.058Z,3.00
2023-04-04T15:41:16.320Z,3.30
2023-04-04T15:43:38.522Z,3.10
2023-04-04T15:46:00.005Z,3.10
2023-04-04T15:48:21.280Z,3.10
2023-04-04T15:50:44.001Z,2.70
2023-04-04T15:53:05.212Z,2.97
2023-04-04T15:55:26.605Z,2.70
2023-04-04T15:57:48.040Z,2.70
2023-04-04T16:00:09.741Z,2.70
2023-04-04T16:02:31.863Z,2.90
2023-04-04T16:04:53.238Z,2.70
2023-04-04T16:07:15.703Z,2.90
2023-04-04T16:09:37.167Z,2.60
2023-04-04T16:11:58.427Z,2.60
2023-04-04T16:14:19.865Z,2.50
2023-04-04T16:16:41.551Z,2.80
2023-04-04T16:19:02.653Z,2.87
2023-04-04T16:21:23.908Z,2.90
2023-04-04T16:23:46.775Z,3.10
2023-04-04T16:26:09.372Z,3.23
2023-04-04T16:28:30.795Z,3.00
2023-04-04T16:30:52.217Z,3.00
2023-04-04T16:33:13.313Z,3.20
2023-04-04T16:35:35.148Z,3.17
2023-04-04T16:37:56.164Z,3.10
2023-04-04T16:40:18.536Z,3.20
2023-04-04T16:42:39.497Z,2.83
2023-04-04T16:45:01.049Z,2.80
2023-04-04T16:47:22.437Z,2.90
2023-04-04T16:49:43.815Z,3.13
2023-04-04T16:52:05.533Z,3.20
2023-04-04T16:54:26.749Z,3.20
2023-04-04T16:56:49.482Z,3.57
2023-04-04T16:59:11.245Z,2.80
2023-04-04T17:01:32.840Z,2.97
2023-04-04T17:03:54.198Z,3.20
2023-04-04T17:06:15.486Z,2.80
2023-04-04T17:08:37.114Z,2.93
2023-04-04T17:10:58.022Z,2.80
2023-04-04T17:13:20.624Z,3.00
2023-04-04T17:15:41.911Z,2.97
2023-04-04T17:18:03.120Z,3.07
2023-04-04T17:20:24.235Z,3.00
2023-04-04T17:22:45.677Z,3.40
2023-04-04T17:25:07.497Z,3.20
2023-04-04T17:27:28.674Z,3.10
2023-04-04T17:29:51.426Z,3.00
2023-04-04T17:32:12.830Z,3.20
2023-04-04T17:34:34.364Z,3.10
2023-04-04T17:36:55.790Z,2.73
2023-04-04T17:39:17.647Z,3.07
2023-04-04T17:41:39.001Z,2.80
2023-04-04T17:44:00.251Z,3.03
2023-04-04T17:46:22.832Z,2.90
2023-04-04T17:48:44.786Z,2.70
2023-04-04T17:51:07.876Z,3.07
2023-04-04T17:53:29.935Z,3.33
2023-04-04T17:55:51.344Z,3.40
2023-04-04T17:58:12.526Z,3.20
2023-04-04T18:00:35.195Z,3.33
2023-04-04T18:02:58.116Z,3.63
2023-04-04T18:05:19.740Z,3.50
2023-04-04T18:07:41.247Z,3.57
2023-04-04T18:10:02.359Z,3.50
2023-04-04T18:12:24.648Z,3.57
2023-04-04T18:14:46.134Z,3.57
2023-04-04T18:17:07.511Z,3.77
2023-04-04T18:19:30.354Z,3.73
2023-04-04T18:21:52.910Z,3.90
2023-04-04T18:24:14.352Z,4.30
2023-04-04T18:26:36.024Z,3.67
2023-04-04T18:28:57.500Z,3.87
2023-04-04T18:31:18.943Z,4.30
2023-04-04T18:33:40.424Z,3.83
2023-04-04T18:36:03.734Z,3.37
2023-04-04T18:38:25.161Z,3.83
2023-04-04T18:40:46.761Z,3.87
2023-04-04T18:43:08.638Z,3.33
2023-04-04T18:45:39.279Z,3.80
2023-04-04T18:48:01.821Z,4.00
2023-04-04T18:50:22.970Z,4.13
2023-04-04T18:52:45.585Z,4.20
2023-04-04T18:55:07.400Z,3.97
2023-04-04T18:57:28.706Z,4.20
2023-04-04T18:59:49.888Z,4.53
2023-04-04T19:02:11.466Z,4.30
2023-04-04T19:04:33.169Z,4.83
2023-04-04T19:06:54.778Z,4.47
2023-04-04T19:09:16.975Z,4.47
2023-04-04T19:11:38.696Z,4.90
2023-04-04T19:14:00.002Z,5.13
2023-04-04T19:16:21.062Z,4.90
2023-04-04T19:18:43.720Z,5.10
2023-04-04T19:21:05.591Z,5.10
2023-04-04T19:23:27.836Z,5.20
2023-04-04T19:25:50.816Z,5.83
2023-04-04T19:28:12.028Z,6.20
2023-04-04T19:30:37.745Z,5.97
2023-04-04T19:32:59.176Z,7.27
2023-04-04T19:35:21.734Z,6.87
2023-04-04T19:37:44.829Z,7.23
2023-04-04T19:40:15.721Z,7.43
2023-04-04T19:42:38.296Z,7.60
2023-04-04T19:44:59.452Z,7.90
2023-04-04T19:47:21.680Z,7.80
2023-04-04T19:49:42.866Z,7.43
2023-04-04T19:52:05.511Z,6.80
2023-04-04T19:54:27.345Z,7.37
2023-04-04T19:56:50.287Z,7.20
2023-04-04T19:59:34.345Z,7.10
2023-04-04T20:02:00.520Z,6.80
2023-04-04T20:04:22.394Z,7.20
2023-04-04T20:06:43.749Z,6.60
2023-04-04T20:09:12.446Z,6.57
2023-04-04T20:11:35.783Z,6.53
2023-04-04T20:13:57.340Z,6.40
2023-04-04T20:16:22.073Z,5.50
2023-04-04T20:18:44.444Z,6.03
2023-04-04T20:21:10.027Z,6.27
2023-04-04T20:23:32.825Z,6.30
2023-04-04T20:25:55.149Z,6.40
2023-04-04T20:28:21.572Z,5.97
2023-04-04T20:30:42.659Z,5.67
2023-04-04T20:33:25.530Z,6.67
2023-04-04T20:35:46.689Z,6.30
2023-04-04T20:38:08.365Z,6.23
2023-04-04T20:40:39.175Z,6.33
2023-04-04T20:43:00.645Z,6.20
2023-04-04T20:45:42.106Z,6.07
2023-04-04T20:48:07.354Z,5.90
2023-04-04T20:50:46.270Z,6.40
2023-04-04T20:53:07.865Z,6.43
2023-04-04T20:55:31.937Z,6.53
2023-04-04T20:57:54.446Z,5.97
2023-04-04T21:00:36.328Z,6.60
2023-04-04T21:02:58.327Z,6.87
2023-04-04T21:05:26.802Z,7.00
2023-04-04T21:07:49.889Z,6.80
2023-04-04T21:10:22.694Z,6.50
2023-04-04T21:12:44.031Z,7.13
2023-04-04T21:15:10.385Z,6.40
2023-04-04T21:17:32.098Z,7.00
2023-04-04T21:19:53.547Z,7.10
2023-04-04T21:22:15.508Z,7.33
2023-04-04T21:24:41.429Z,7.10
2023-04-04T21:27:06.407Z,7.40
2023-04-04T21:29:29.609Z,7.83
2023-04-04T21:31:52.561Z,7.53
2023-04-04T21:34:15.693Z,7.53
2023-04-04T21:36:37.638Z,7.77
2023-04-04T21:39:00.612Z,8.17
2023-04-04T21:41:25.280Z,8.23
2023-04-04T21:43:46.776Z,8.20
2023-04-04T21:46:08.779Z,8.13
2023-04-04T21:48:30.236Z,8.40
2023-04-04T21:50:52.410Z,7.50
2023-04-04T21:53:14.828Z,8.67
2023-04-04T21:55:38.542Z,7.93
2023-04-04T21:58:02.644Z,8.23
2023-04-04T22:00:25.269Z,8.33
2023-04-04T22:02:46.864Z,8.13
2023-04-04T22:05:08.499Z,7.70
2023-04-04T22:07:30.231Z,8.37
2023-04-04T22:09:52.826Z,7.77
2023-04-04T22:12:15.823Z,8.10
2023-04-04T22:14:42.738Z,8.53
2023-04-04T22:17:05.456Z,8.10
2023-04-04T22:19:26.804Z,8.10
2023-04-04T22:21:48.594Z,7.90
2023-04-04T22:24:10.264Z,8.73
2023-04-04T22:26:33.415Z,8.63
2023-04-04T22:28:55.353Z,8.90
2023-04-04T22:31:17.774Z,9.03
2023-04-04T22:33:41.021Z,9.43
2023-04-04T22:36:02.690Z,8.40
2023-04-04T22:38:24.673Z,8.90
2023-04-04T22:40:46.347Z,8.77
2023-04-04T22:43:07.472Z,8.53
2023-04-04T22:45:29.555Z,8.60
2023-04-04T22:47:52.371Z,8.47
2023-04-04T22:50:14.627Z,8.97
2023-04-04T22:52:43.041Z,8.70
2023-04-04T22:55:05.154Z,8.90
2023-04-04T22:57:26.713Z,8.67
2023-04-04T22:59:47.744Z,9.20
2023-04-04T23:02:09.164Z,8.50
2023-04-04T23:04:32.089Z,8.90
2023-04-04T23:06:53.458Z,8.33
2023-04-04T23:09:16.534Z,8.37
2023-04-04T23:11:38.193Z,8.20
2023-04-04T23:14:00.705Z,8.43
2023-04-04T23:16:23.422Z,8.70
2023-04-04T23:18:44.855Z,8.40
2023-04-04T23:21:07.641Z,8.90
2023-04-04T23:23:29.292Z,9.00
2023-04-04T23:25:51.634Z,9.40
2023-04-04T23:28:13.195Z,8.90
2023-04-04T23:30:34.554Z,9.13
2023-04-04T23:32:56.159Z,9.07
2023-04-04T23:35:17.191Z,10.60
2023-04-04T23:37:41.257Z,9.20
2023-04-04T23:40:02.277Z,9.67
2023-04-04T23:42:23.427Z,10.07
2023-04-04T23:44:44.882Z,9.57
2023-04-04T23:47:06.346Z,9.07
2023-04-04T23:49:27.606Z,9.57
2023-04-04T23:51:48.916Z,9.30
2023-04-04T23:54:12.164Z,9.30
2023-04-04T23:56:33.356Z,9.50
2023-04-04T23:58:54.800Z,9.27
